createdAt,value
2018-05-31T00:00:07.509Z,18.10
2018-05-31T00:03:10.827Z,18.00
2018-05-31T00:06:14.157Z,18.00
2018-05-31T00:09:17.483Z,18.00
2018-05-31T00:12:20.793Z,18.00
2018-05-31T00:15:24.133Z,17.90
2018-05-31T00:18:27.463Z,17.90
2018-05-31T00:21:31.566Z,17.80
2018-05-31T00:24:35.645Z,17.80
2018-05-31T00:27:38.976Z,17.80
2018-05-31T00:30:42.289Z,17.80
2018-05-31T00:33:46.377Z,17.70
2018-05-31T00:36:49.703Z,17.80
2018-05-31T00:39:53.801Z,17.70
2018-05-31T00:42:57.889Z,17.80
2018-05-31T00:46:01.397Z,17.70
2018-05-31T00:49:04.718Z,17.70
2018-05-31T00:52:08.834Z,17.60
2018-05-31T00:55:12.922Z,17.60
2018-05-31T00:58:16.245Z,17.60
2018-05-31T01:01:20.352Z,17.60
2018-05-31T01:04:24.433Z,17.50
2018-05-31T01:07:27.770Z,17.50
2018-05-31T01:10:31.865Z,17.40
2018-05-31T01:13:35.185Z,17.40
2018-05-31T01:16:39.273Z,17.40
2018-05-31T01:19:42.617Z,17.40
2018-05-31T01:22:45.934Z,17.30
2018-05-31T01:25:49.261Z,17.30
2018-05-31T01:28:52.594Z,17.20
2018-05-31T01:31:56.685Z,17.20
2018-05-31T01:35:00.174Z,17.10
2018-05-31T01:38:21.205Z,17.10
2018-05-31T01:41:24.529Z,17.10
2018-05-31T01:44:27.849Z,17.10
2018-05-31T01:47:31.181Z,17.10
2018-05-31T01:50:34.505Z,17.10
2018-05-31T01:53:38.609Z,17.10
2018-05-31T01:56:42.699Z,17.00
2018-05-31T01:59:46.038Z,17.10
2018-05-31T02:02:50.122Z,17.00
2018-05-31T02:05:55.249Z,17.00
2018-05-31T02:08:58.574Z,16.90
2018-05-31T02:12:02.677Z,16.90
2018-05-31T02:15:05.989Z,16.90
2018-05-31T02:18:10.091Z,16.90
2018-05-31T02:21:13.412Z,16.80
2018-05-31T02:24:17.522Z,16.90
2018-05-31T02:27:21.611Z,16.80
2018-05-31T02:30:24.955Z,16.80
2018-05-31T02:33:28.269Z,16.80
2018-05-31T02:36:31.602Z,16.80
2018-05-31T02:39:34.917Z,16.80
2018-05-31T02:42:39.017Z,16.80
2018-05-31T02:45:42.337Z,16.80
2018-05-31T02:48:46.438Z,16.80
2018-05-31T02:51:50.538Z,16.70
2018-05-31T02:54:53.853Z,16.80
2018-05-31T02:57:57.954Z,16.80
2018-05-31T03:01:01.281Z,16.80
2018-05-31T03:04:04.611Z,16.80
2018-05-31T03:07:07.933Z,16.80
2018-05-31T03:10:11.273Z,16.80
2018-05-31T03:13:14.593Z,16.90
2018-05-31T03:16:17.930Z,16.80
2018-05-31T03:19:21.250Z,16.70
2018-05-31T03:22:24.594Z,16.70
2018-05-31T03:25:27.912Z,16.70
2018-05-31T03:28:31.418Z,16.80
2018-05-31T03:31:34.739Z,16.80
2018-05-31T03:34:38.843Z,16.70
2018-05-31T03:37:42.949Z,16.70
2018-05-31T03:40:46.269Z,16.70
2018-05-31T03:43:49.609Z,16.80
2018-05-31T03:46:52.933Z,16.80
2018-05-31T03:49:56.273Z,16.80
2018-05-31T03:52:59.595Z,16.80
2018-05-31T03:56:02.928Z,16.80
2018-05-31T03:59:06.245Z,16.80
2018-05-31T04:02:10.351Z,16.90
2018-05-31T04:05:13.682Z,16.90
2018-05-31T04:08:17.026Z,16.90
2018-05-31T04:11:20.370Z,16.90
2018-05-31T04:14:24.524Z,16.90
2018-05-31T04:17:27.837Z,16.90
2018-05-31T04:20:31.160Z,17.00
2018-05-31T04:23:35.249Z,17.00
2018-05-31T04:26:38.584Z,17.00
2018-05-31T04:29:42.686Z,17.10
2018-05-31T04:32:46.789Z,17.20
2018-05-31T04:35:50.105Z,17.10
2018-05-31T04:38:54.201Z,17.30
2018-05-31T04:41:57.523Z,17.30
2018-05-31T04:45:00.853Z,17.30
2018-05-31T04:48:04.178Z,17.40
2018-05-31T04:51:07.505Z,17.40
2018-05-31T04:54:11.729Z,17.40
2018-05-31T04:57:15.814Z,17.50
2018-05-31T05:00:19.150Z,17.50
2018-05-31T05:03:22.481Z,17.50
2018-05-31T05:06:25.824Z,17.60
2018-05-31T05:09:29.910Z,17.70
2018-05-31T05:12:33.241Z,17.70
2018-05-31T05:15:37.325Z,17.90
2018-05-31T05:18:40.670Z,17.80
2018-05-31T05:21:43.993Z,17.90
2018-05-31T05:24:47.319Z,17.90
2018-05-31T05:27:50.653Z,17.90
2018-05-31T05:30:54.755Z,18.10
2018-05-31T05:33:58.078Z,18.10
2018-05-31T05:37:01.401Z,18.20
2018-05-31T05:40:04.750Z,18.30
2018-05-31T05:43:08.838Z,18.40
2018-05-31T05:46:12.173Z,18.30
2018-05-31T05:49:15.483Z,18.50
2018-05-31T05:52:18.810Z,18.60
2018-05-31T05:55:22.125Z,18.60
2018-05-31T05:58:25.463Z,18.70
2018-05-31T06:01:28.802Z,18.70
2018-05-31T06:04:32.132Z,18.80
2018-05-31T06:07:36.221Z,18.90
2018-05-31T06:10:39.560Z,18.90
2018-05-31T06:13:43.653Z,19.00
2018-05-31T06:16:47.001Z,19.00
2018-05-31T06:19:50.418Z,19.10
2018-05-31T06:22:53.656Z,19.20
2018-05-31T06:25:57.741Z,19.40
2018-05-31T06:29:01.078Z,19.30
2018-05-31T06:32:04.404Z,19.50
2018-05-31T06:35:07.746Z,19.50
2018-05-31T06:38:11.057Z,19.70
2018-05-31T06:41:14.378Z,19.80
2018-05-31T06:44:17.691Z,19.90
2018-05-31T06:47:21.022Z,19.90
2018-05-31T06:50:24.330Z,20.00
2018-05-31T06:53:27.649Z,20.10
2018-05-31T06:56:31.721Z,20.10
2018-05-31T06:59:35.028Z,20.10
2018-05-31T07:02:38.334Z,20.20
2018-05-31T07:05:41.650Z,20.30
2018-05-31T07:08:45.726Z,20.30
2018-05-31T07:11:49.042Z,20.30
2018-05-31T07:14:52.361Z,20.40
2018-05-31T07:17:56.441Z,20.60
2018-05-31T07:20:59.746Z,20.60
2018-05-31T07:24:03.082Z,20.60
2018-05-31T07:27:07.169Z,20.80
2018-05-31T07:30:10.490Z,20.80
2018-05-31T07:33:14.575Z,20.90
2018-05-31T07:36:17.948Z,20.90
2018-05-31T07:39:21.226Z,21.00
2018-05-31T07:42:24.536Z,21.20
2018-05-31T07:45:27.844Z,21.30
2018-05-31T07:48:31.177Z,21.30
2018-05-31T07:51:35.251Z,21.30
2018-05-31T07:54:38.569Z,21.30
2018-05-31T07:57:41.882Z,21.30
2018-05-31T08:00:45.969Z,21.50
2018-05-31T08:03:49.282Z,21.50
2018-05-31T08:06:52.596Z,21.70
2018-05-31T08:09:56.668Z,21.80
2018-05-31T08:12:59.981Z,21.80
2018-05-31T08:16:03.293Z,21.80
2018-05-31T08:19:07.400Z,22.00
2018-05-31T08:22:10.702Z,22.00
2018-05-31T08:25:14.009Z,22.10
2018-05-31T08:28:18.081Z,22.30
2018-05-31T08:31:21.432Z,22.30
2018-05-31T08:34:24.716Z,22.40
2018-05-31T08:37:28.809Z,22.50
2018-05-31T08:40:32.121Z,22.50
2018-05-31T08:43:35.439Z,22.60
2018-05-31T08:46:38.749Z,22.70
2018-05-31T08:49:42.087Z,22.90
2018-05-31T08:52:45.393Z,23.00
2018-05-31T08:55:48.724Z,23.10
2018-05-31T08:58:52.027Z,23.10
2018-05-31T09:01:55.357Z,23.10
2018-05-31T09:04:58.666Z,23.20
2018-05-31T09:08:01.997Z,23.20
2018-05-31T09:11:06.074Z,23.30
2018-05-31T09:14:09.400Z,23.30
2018-05-31T09:17:12.700Z,23.40
2018-05-31T09:20:16.786Z,23.50
2018-05-31T09:23:24.625Z,23.50
2018-05-31T09:26:28.700Z,23.50
2018-05-31T09:29:32.005Z,23.50
2018-05-31T09:32:35.316Z,23.60
2018-05-31T09:35:38.666Z,23.70
2018-05-31T09:38:42.068Z,23.80
2018-05-31T09:41:45.415Z,23.80
2018-05-31T09:44:48.717Z,23.90
2018-05-31T09:47:52.818Z,23.60
2018-05-31T09:50:56.138Z,23.60
2018-05-31T09:54:00.214Z,23.30
2018-05-31T09:57:03.547Z,23.30
2018-05-31T10:00:07.625Z,23.60
2018-05-31T10:03:10.941Z,23.60
2018-05-31T10:06:14.249Z,23.70
2018-05-31T10:09:18.339Z,24.10
2018-05-31T10:12:23.362Z,24.10
2018-05-31T10:15:26.686Z,24.20
2018-05-31T10:18:30.021Z,24.30
2018-05-31T10:21:33.325Z,24.30
2018-05-31T10:24:36.670Z,24.50
2018-05-31T10:27:39.981Z,24.50
2018-05-31T10:30:44.086Z,24.60
2018-05-31T10:33:47.397Z,24.60
2018-05-31T10:36:50.737Z,24.50
2018-05-31T10:39:54.818Z,24.70
2018-05-31T10:42:58.142Z,24.60
2018-05-31T10:46:01.478Z,24.80
2018-05-31T10:49:04.794Z,24.90
2018-05-31T10:52:08.889Z,25.00
2018-05-31T10:55:12.217Z,25.00
2018-05-31T10:58:16.325Z,25.20
2018-05-31T11:01:20.401Z,25.20
2018-05-31T11:04:23.744Z,25.20
2018-05-31T11:07:27.835Z,25.40
2018-05-31T11:10:31.170Z,25.40
2018-05-31T11:13:34.486Z,25.30
2018-05-31T11:16:37.802Z,25.30
2018-05-31T11:19:41.139Z,25.40
2018-05-31T11:22:45.229Z,25.50
2018-05-31T11:25:48.570Z,25.40
2018-05-31T11:28:51.881Z,25.40
2018-05-31T11:31:55.229Z,25.60
2018-05-31T11:34:58.542Z,25.60
2018-05-31T11:38:02.643Z,25.60
2018-05-31T11:41:05.970Z,25.60
2018-05-31T11:44:09.292Z,25.50
2018-05-31T11:47:12.597Z,25.50
2018-05-31T11:50:15.934Z,25.50
2018-05-31T11:53:19.245Z,25.50
2018-05-31T11:56:23.388Z,25.50
2018-05-31T11:59:27.434Z,25.50
2018-05-31T12:02:30.781Z,25.40
2018-05-31T12:05:34.865Z,25.50
2018-05-31T12:08:38.193Z,25.50
2018-05-31T12:11:41.493Z,25.50
2018-05-31T12:14:44.813Z,25.50
2018-05-31T12:17:48.122Z,25.40
2018-05-31T12:20:51.443Z,25.50
2018-05-31T12:23:54.747Z,25.60
2018-05-31T12:26:58.061Z,25.60
2018-05-31T12:30:01.369Z,25.60
2018-05-31T12:33:04.802Z,25.60
2018-05-31T12:36:08.107Z,25.70
2018-05-31T12:39:11.425Z,25.60
2018-05-31T12:42:14.733Z,25.50
2018-05-31T12:45:18.153Z,25.40
2018-05-31T12:48:21.460Z,25.40
2018-05-31T12:51:24.788Z,25.50
2018-05-31T12:54:28.097Z,25.50
2018-05-31T12:57:31.413Z,25.50
2018-05-31T13:00:34.725Z,25.60
2018-05-31T13:03:38.839Z,25.70
2018-05-31T13:06:42.913Z,25.70
2018-05-31T13:09:46.229Z,25.70
2018-05-31T13:12:49.542Z,25.60
2018-05-31T13:15:53.646Z,25.70
2018-05-31T13:18:56.953Z,25.70
2018-05-31T13:22:01.039Z,25.60
2018-05-31T13:25:04.377Z,25.60
2018-05-31T13:28:07.687Z,25.50
2018-05-31T13:31:11.017Z,25.50
2018-05-31T13:34:14.322Z,25.40
2018-05-31T13:37:17.661Z,25.40
2018-05-31T13:40:20.977Z,25.40
2018-05-31T13:43:24.288Z,25.40
2018-05-31T13:46:27.593Z,25.50
2018-05-31T13:49:30.910Z,25.60
2018-05-31T13:52:34.233Z,25.50
2018-05-31T13:55:38.315Z,25.40
2018-05-31T13:58:41.629Z,25.40
2018-05-31T14:01:44.953Z,25.40
2018-05-31T14:04:49.022Z,25.40
2018-05-31T14:07:52.358Z,25.40
2018-05-31T14:10:56.436Z,25.40
2018-05-31T14:13:59.753Z,25.40
2018-05-31T14:17:03.073Z,25.40
2018-05-31T14:20:07.145Z,25.50
2018-05-31T14:23:10.476Z,25.50
2018-05-31T14:26:13.773Z,25.60
2018-05-31T14:29:17.858Z,25.60
2018-05-31T14:32:21.185Z,25.60
2018-05-31T14:35:24.508Z,25.70
2018-05-31T14:38:27.816Z,25.80
2018-05-31T14:41:31.138Z,25.90
2018-05-31T14:44:34.449Z,26.00
2018-05-31T14:47:37.777Z,26.00
2018-05-31T14:50:41.097Z,26.10
2018-05-31T14:53:44.413Z,26.20
2018-05-31T14:56:47.813Z,26.30
2018-05-31T14:59:51.058Z,26.40
2018-05-31T15:02:55.174Z,26.70
2018-05-31T15:05:59.245Z,26.80
2018-05-31T15:09:02.574Z,26.80
2018-05-31T15:12:05.905Z,26.80
2018-05-31T15:15:09.206Z,26.90
2018-05-31T15:18:12.526Z,27.10
2018-05-31T15:21:15.821Z,27.30
2018-05-31T15:24:19.147Z,27.40
2018-05-31T15:27:22.454Z,27.50
2018-05-31T15:30:26.540Z,27.70
2018-05-31T15:33:29.857Z,27.70
2018-05-31T15:36:33.183Z,27.60
2018-05-31T15:39:36.489Z,27.70
2018-05-31T15:42:39.810Z,27.90
2018-05-31T15:45:43.118Z,28.10
2018-05-31T15:48:46.449Z,28.00
2018-05-31T15:51:49.769Z,28.00
2018-05-31T15:54:53.081Z,28.00
2018-05-31T15:57:56.389Z,27.70
2018-05-31T16:00:59.725Z,27.80
2018-05-31T16:04:03.033Z,27.60
2018-05-31T16:07:07.109Z,27.30
2018-05-31T16:10:10.414Z,27.30
2018-05-31T16:13:13.725Z,27.00
2018-05-31T16:16:17.027Z,26.70
2018-05-31T16:19:20.376Z,26.10
2018-05-31T16:22:23.677Z,25.60
2018-05-31T16:25:26.995Z,25.00
2018-05-31T16:28:31.196Z,24.70
2018-05-31T16:31:34.462Z,24.40
2018-05-31T16:34:37.782Z,24.20
2018-05-31T16:37:41.081Z,24.00
2018-05-31T16:40:44.423Z,23.90
2018-05-31T16:43:47.726Z,23.70
2018-05-31T16:46:51.789Z,23.50
2018-05-31T16:49:55.877Z,23.30
2018-05-31T16:52:59.194Z,23.30
2018-05-31T16:56:02.531Z,23.20
2018-05-31T16:59:05.839Z,23.10
2018-05-31T17:02:09.178Z,23.00
2018-05-31T17:05:12.486Z,23.10
2018-05-31T17:08:15.826Z,23.10
2018-05-31T17:11:19.133Z,22.90
2018-05-31T17:14:23.205Z,22.70
2018-05-31T17:17:26.521Z,22.70
2018-05-31T17:20:29.833Z,22.60
2018-05-31T17:23:33.141Z,22.50
2018-05-31T17:26:37.232Z,22.30
2018-05-31T17:29:40.537Z,22.40
2018-05-31T17:32:43.853Z,22.30
2018-05-31T17:35:47.949Z,22.20
2018-05-31T17:38:51.267Z,22.20
2018-05-31T17:41:55.356Z,22.10
2018-05-31T17:44:58.652Z,22.10
2018-05-31T17:48:01.973Z,22.10
2018-05-31T17:51:06.064Z,22.00
2018-05-31T17:54:09.385Z,22.00
2018-05-31T17:57:13.457Z,21.90
2018-05-31T18:00:16.771Z,21.90
2018-05-31T18:03:20.942Z,21.70
2018-05-31T18:06:24.214Z,21.70
2018-05-31T18:09:27.526Z,21.70
2018-05-31T18:12:30.852Z,21.60
2018-05-31T18:15:34.161Z,21.60
2018-05-31T18:18:37.472Z,21.60
2018-05-31T18:21:40.776Z,21.50
2018-05-31T18:24:44.862Z,21.30
2018-05-31T18:27:48.168Z,21.30
2018-05-31T18:30:51.483Z,21.30
2018-05-31T18:33:55.586Z,21.10
2018-05-31T18:36:58.886Z,21.00
2018-05-31T18:40:02.212Z,21.00
2018-05-31T18:43:05.525Z,20.90
2018-05-31T18:46:08.839Z,20.70
2018-05-31T18:49:12.149Z,20.70
2018-05-31T18:52:15.453Z,20.50
2018-05-31T18:55:18.757Z,20.50
2018-05-31T18:58:22.102Z,20.40
2018-05-31T19:01:25.405Z,20.40
2018-05-31T19:04:28.717Z,20.30
2018-05-31T19:07:32.047Z,20.20
2018-05-31T19:10:35.353Z,20.10
2018-05-31T19:13:44.298Z,20.00
2018-05-31T19:16:47.597Z,19.90
2018-05-31T19:19:55.613Z,19.80
2018-05-31T19:22:58.925Z,19.80
2018-05-31T19:26:02.235Z,19.80
2018-05-31T19:29:05.541Z,19.70
2018-05-31T19:32:08.893Z,19.60
2018-05-31T19:35:17.590Z,19.50
2018-05-31T19:38:20.897Z,19.50
2018-05-31T19:41:24.989Z,19.30
2018-05-31T19:44:33.934Z,19.40
2018-05-31T19:47:38.019Z,19.20
2018-05-31T19:50:41.329Z,19.20
2018-05-31T19:53:44.649Z,19.10
2018-05-31T19:56:47.959Z,19.00
2018-05-31T19:59:56.669Z,18.90
2018-05-31T20:03:06.342Z,18.80
2018-05-31T20:06:09.657Z,18.80
2018-05-31T20:09:12.965Z,18.80
2018-05-31T20:12:16.273Z,18.80
2018-05-31T20:15:19.576Z,18.70
2018-05-31T20:18:22.895Z,18.70
2018-05-31T20:21:26.993Z,18.60
2018-05-31T20:24:30.293Z,18.50
2018-05-31T20:27:33.620Z,18.50
2018-05-31T20:30:36.975Z,18.40
2018-05-31T20:33:40.254Z,18.40
2018-05-31T20:36:43.565Z,18.40
2018-05-31T20:39:46.873Z,18.30
2018-05-31T20:42:50.176Z,18.40
2018-05-31T20:45:53.481Z,18.20
2018-05-31T20:48:57.559Z,18.20
2018-05-31T20:52:00.875Z,18.20
2018-05-31T20:55:04.205Z,18.20
2018-05-31T20:58:07.505Z,18.10
2018-05-31T21:01:10.828Z,18.00
2018-05-31T21:04:14.134Z,18.10
2018-05-31T21:07:17.440Z,18.10
2018-05-31T21:10:20.733Z,18.10
2018-05-31T21:13:24.045Z,18.00
2018-05-31T21:16:27.342Z,18.00
2018-05-31T21:19:30.674Z,18.00
2018-05-31T21:22:34.746Z,17.90
2018-05-31T21:25:38.053Z,17.90
2018-05-31T21:28:41.358Z,17.90
2018-05-31T21:31:44.674Z,17.80
2018-05-31T21:34:48.740Z,17.80
2018-05-31T21:37:52.079Z,17.80
2018-05-31T21:40:56.150Z,17.70
2018-05-31T21:43:59.478Z,17.70
2018-05-31T21:47:02.772Z,17.70
2018-05-31T21:50:06.086Z,17.60
2018-05-31T21:53:10.158Z,17.50
2018-05-31T21:56:13.490Z,17.50
2018-05-31T21:59:16.807Z,17.50
2018-05-31T22:02:20.136Z,17.40
2018-05-31T22:05:23.437Z,17.40
2018-05-31T22:08:26.757Z,17.30
2018-05-31T22:11:30.113Z,17.30
2018-05-31T22:14:34.154Z,17.30
2018-05-31T22:17:37.460Z,17.30
2018-05-31T22:20:40.777Z,17.30
2018-05-31T22:23:44.848Z,17.20
2018-05-31T22:26:48.177Z,17.20
2018-05-31T22:29:51.478Z,17.20
2018-05-31T22:32:54.800Z,17.20
2018-05-31T22:35:58.101Z,17.20
2018-05-31T22:39:01.414Z,17.10
2018-05-31T22:42:04.724Z,17.10
2018-05-31T22:45:08.029Z,17.10
2018-05-31T22:48:11.346Z,17.10
2018-05-31T22:51:14.645Z,17.00
2018-05-31T22:54:17.994Z,17.00
2018-05-31T22:57:21.293Z,17.00
2018-05-31T23:00:24.602Z,16.90
2018-05-31T23:03:27.906Z,17.00
2018-05-31T23:06:31.222Z,16.90
2018-05-31T23:09:34.531Z,16.90
2018-05-31T23:12:37.826Z,16.80
2018-05-31T23:15:41.140Z,16.80
2018-05-31T23:18:44.449Z,16.80
2018-05-31T23:21:47.775Z,16.80
2018-05-31T23:24:51.069Z,16.80
2018-05-31T23:27:54.394Z,16.70
2018-05-31T23:30:57.697Z,16.80
2018-05-31T23:34:01.009Z,16.70
2018-05-31T23:37:05.082Z,16.60
2018-05-31T23:40:08.417Z,16.60
2018-05-31T23:43:11.714Z,16.60
2018-05-31T23:46:15.026Z,16.60
2018-05-31T23:49:19.088Z,16.60
2018-05-31T23:52:22.414Z,16.60
2018-05-31T23:55:25.720Z,16.50
2018-05-31T23:58:30.205Z,16.50
